createdAt,value
2023-03-06T00:01:29.776Z,5.67
2023-03-06T00:06:33.702Z,5.57
2023-03-06T00:11:37.722Z,4.83
2023-03-06T00:16:41.442Z,3.47
2023-03-06T00:21:45.155Z,4.53
2023-03-06T00:26:48.976Z,5.60
2023-03-06T05:35:48.977Z,4.57
2023-03-06T05:40:51.905Z,8.20
2023-03-06T05:46:05.616Z,7.60
2023-03-06T05:51:09.422Z,7.30
2023-03-06T05:56:12.263Z,8.93
2023-03-06T06:01:18.122Z,9.60
2023-03-06T06:06:20.985Z,9.57
2023-03-06T06:11:23.794Z,7.93
2023-03-06T06:16:26.618Z,6.30
2023-03-06T06:21:29.458Z,6.33
2023-03-06T06:26:32.298Z,6.37
2023-03-06T06:31:36.843Z,5.73
2023-03-06T06:36:40.350Z,5.90
2023-03-06T06:41:59.446Z,4.83
2023-03-06T06:47:22.270Z,4.47
2023-03-06T06:52:26.752Z,4.13
2023-03-06T06:57:29.734Z,5.03
2023-03-06T07:02:33.572Z,6.30
2023-03-06T07:07:39.089Z,5.77
2023-03-06T07:12:42.312Z,5.37
2023-03-06T07:17:45.146Z,6.50
2023-03-06T07:22:51.174Z,4.97
2023-03-06T07:27:55.063Z,4.63
2023-03-06T07:32:59.842Z,3.80
2023-03-06T07:38:02.959Z,5.83
2023-03-06T07:43:18.811Z,5.67
2023-03-06T07:48:22.429Z,3.80
2023-03-06T07:53:25.990Z,3.80
2023-03-06T07:58:28.865Z,4.70
2023-03-06T08:03:31.772Z,4.83
2023-03-06T08:08:35.936Z,3.83
2023-03-06T08:13:39.270Z,3.87
2023-03-06T08:18:44.315Z,4.57
2023-03-06T08:23:48.445Z,4.50
2023-03-06T08:28:52.581Z,3.77
2023-03-06T08:33:56.708Z,4.13
2023-03-06T08:39:00.119Z,4.13
2023-03-06T08:44:03.320Z,3.53
2023-03-06T08:49:06.306Z,2.83
2023-03-06T08:54:12.284Z,4.47
2023-03-06T08:59:15.145Z,4.13
2023-03-06T09:04:18.075Z,4.80
2023-03-06T09:09:21.004Z,3.50
2023-03-06T09:14:23.808Z,2.90
2023-03-06T09:19:26.702Z,5.63
2023-03-06T09:24:29.588Z,4.20
2023-03-06T09:29:32.489Z,3.67
2023-03-06T09:34:35.725Z,3.30
2023-03-06T09:39:38.734Z,3.87
2023-03-06T09:44:43.507Z,3.60
2023-03-06T09:50:01.426Z,3.87
2023-03-06T09:55:36.964Z,3.30
2023-03-06T10:00:41.904Z,3.63
2023-03-06T10:06:10.023Z,4.03
2023-03-06T10:11:15.998Z,2.87
2023-03-06T10:16:36.999Z,3.70
2023-03-06T10:22:02.831Z,3.67
2023-03-06T10:27:28.497Z,3.10
2023-03-06T10:32:48.803Z,3.57
2023-03-06T10:37:57.221Z,3.50
2023-03-06T10:43:11.128Z,3.50
2023-03-06T10:48:20.033Z,3.10
2023-03-06T10:53:26.018Z,4.17
2023-03-06T10:58:31.035Z,4.53
2023-03-06T11:03:35.812Z,3.20
2023-03-06T11:08:39.540Z,3.77
2023-03-06T11:13:44.376Z,2.50
2023-03-06T11:19:08.489Z,3.20
2023-03-06T11:24:21.479Z,2.67
2023-03-06T11:29:43.577Z,3.23
2023-03-06T11:35:10.145Z,2.60
2023-03-06T11:40:19.240Z,2.80
2023-03-06T11:45:45.639Z,2.13
2023-03-06T11:50:53.357Z,2.43
2023-03-06T11:56:29.465Z,3.20
2023-03-06T12:01:39.442Z,2.53
2023-03-06T12:07:05.590Z,3.50
2023-03-06T12:12:47.723Z,3.30
2023-03-06T12:18:07.820Z,2.40
2023-03-06T12:23:28.272Z,2.80
2023-03-06T12:28:32.793Z,2.43
2023-03-06T12:33:35.618Z,3.00
2023-03-06T12:39:02.248Z,2.77
2023-03-06T12:44:30.243Z,2.10
2023-03-06T12:49:38.881Z,2.80
2023-03-06T12:54:42.050Z,2.17
2023-03-06T12:59:48.827Z,2.23
2023-03-06T13:05:13.497Z,2.70
2023-03-06T13:10:22.302Z,2.80
2023-03-06T13:15:41.776Z,2.50
2023-03-06T13:20:45.775Z,3.17
2023-03-06T13:25:50.253Z,3.07
2023-03-06T13:30:53.432Z,3.20
2023-03-06T13:35:57.005Z,2.50
2023-03-06T13:41:28.034Z,3.40
2023-03-06T13:46:36.968Z,3.23
2023-03-06T13:51:52.291Z,3.27
2023-03-06T13:57:16.599Z,3.37
2023-03-06T14:02:25.733Z,2.83
2023-03-06T14:07:42.699Z,3.20
2023-03-06T14:12:51.535Z,2.83
2023-03-06T14:18:07.444Z,3.40
2023-03-06T14:23:23.742Z,3.30
2023-03-06T14:28:34.182Z,3.57
2023-03-06T14:33:44.505Z,4.00
2023-03-06T14:39:17.932Z,3.23
2023-03-06T14:44:21.888Z,3.73
2023-03-06T14:49:26.411Z,4.00
2023-03-06T14:54:30.287Z,2.60
2023-03-06T14:59:41.162Z,3.03
2023-03-06T15:04:52.941Z,3.83
2023-03-06T15:09:56.202Z,3.20
2023-03-06T15:15:18.195Z,3.13
2023-03-06T15:20:41.369Z,3.47
2023-03-06T15:25:55.514Z,2.97
2023-03-06T15:31:20.005Z,2.80
2023-03-06T15:36:29.700Z,2.60
2023-03-06T15:41:35.690Z,3.53
2023-03-06T15:46:38.837Z,3.87
2023-03-06T15:51:41.735Z,5.10
2023-03-06T15:56:46.387Z,4.47
2023-03-06T16:01:50.145Z,5.30
2023-03-06T16:06:53.108Z,5.30
2023-03-06T16:11:55.987Z,5.67
2023-03-06T16:16:59.619Z,5.87
2023-03-06T16:22:10.281Z,6.53
2023-03-06T16:27:18.661Z,7.43
2023-03-06T16:32:21.611Z,7.23
2023-03-06T16:37:24.508Z,5.60
2023-03-06T16:42:27.325Z,6.07
2023-03-06T16:47:31.642Z,6.33
2023-03-06T16:52:34.484Z,6.60
2023-03-06T16:57:37.284Z,9.63
2023-03-06T17:02:40.867Z,8.40
2023-03-06T17:07:43.830Z,7.90
2023-03-06T17:12:46.862Z,6.27
2023-03-06T17:17:51.605Z,6.73
2023-03-06T17:22:54.787Z,5.60
2023-03-06T17:27:58.543Z,4.43
2023-03-06T17:33:01.593Z,4.03
2023-03-06T17:38:04.522Z,5.23
2023-03-06T17:43:07.320Z,4.17
2023-03-06T17:48:10.134Z,4.63
2023-03-06T17:53:13.105Z,5.87
2023-03-06T17:58:16.037Z,5.97
2023-03-06T18:03:19.076Z,7.97
2023-03-06T18:08:21.924Z,7.80
2023-03-06T18:13:25.113Z,6.07
2023-03-06T18:18:28.414Z,6.87
2023-03-06T18:23:31.369Z,6.63
2023-03-06T18:28:34.510Z,6.00
2023-03-06T18:33:37.658Z,8.30
2023-03-06T18:38:42.950Z,7.57
2023-03-06T18:43:46.026Z,8.53
2023-03-06T18:48:48.933Z,7.80
2023-03-06T18:53:52.179Z,5.20
2023-03-06T18:58:55.672Z,5.17
2023-03-06T19:04:05.602Z,5.07
2023-03-06T19:09:09.350Z,6.47
2023-03-06T19:14:12.804Z,5.03
2023-03-06T19:19:15.656Z,7.10
2023-03-06T19:24:18.544Z,8.53
2023-03-06T19:29:21.430Z,8.67
2023-03-06T19:34:24.298Z,8.80
2023-03-06T19:39:27.099Z,8.90
2023-03-06T19:44:29.907Z,10.33
2023-03-06T19:49:32.858Z,7.03
2023-03-06T19:54:35.802Z,7.90
2023-03-06T19:59:38.639Z,7.13
2023-03-06T20:04:41.608Z,7.27
2023-03-06T20:09:44.550Z,7.73
2023-03-06T20:14:47.402Z,7.77
2023-03-06T20:19:50.413Z,7.00
2023-03-06T20:24:53.408Z,6.83
2023-03-06T20:29:56.224Z,7.47
2023-03-06T20:34:59.240Z,6.33
2023-03-06T20:40:02.182Z,7.60
2023-03-06T20:45:05.576Z,7.40
2023-03-06T20:50:08.899Z,7.47
2023-03-06T20:55:11.669Z,6.10
2023-03-06T21:00:14.778Z,7.07
2023-03-06T21:05:17.589Z,5.33
2023-03-06T21:10:20.409Z,5.03
2023-03-06T21:15:27.059Z,5.57
2023-03-06T21:20:29.843Z,6.03
2023-03-06T21:25:32.655Z,6.27
2023-03-06T21:30:35.467Z,6.00
2023-03-06T21:35:42.272Z,6.63
2023-03-06T21:40:45.450Z,7.50
2023-03-06T21:45:49.372Z,6.60
2023-03-06T21:50:52.280Z,8.47
2023-03-06T21:55:55.095Z,6.23
2023-03-06T22:00:58.242Z,7.97
2023-03-06T22:06:15.844Z,7.97
2023-03-06T22:11:21.038Z,8.00
2023-03-06T22:16:23.873Z,8.03
2023-03-06T22:21:27.190Z,10.50
2023-03-06T22:26:30.734Z,10.00
2023-03-06T22:31:33.564Z,7.57
2023-03-06T22:36:36.420Z,7.13
2023-03-06T22:41:39.557Z,7.83
2023-03-06T22:46:42.660Z,6.90
2023-03-06T22:51:45.526Z,6.73
2023-03-06T22:56:48.352Z,5.97
2023-03-06T23:01:51.115Z,6.87
2023-03-06T23:06:53.976Z,6.23
2023-03-06T23:11:56.747Z,9.23
2023-03-06T23:16:59.528Z,7.27
2023-03-06T23:22:02.382Z,7.70
2023-03-06T23:27:05.356Z,6.60
2023-03-06T23:32:08.405Z,8.23
2023-03-06T23:37:11.240Z,6.27
2023-03-06T23:42:14.350Z,8.23
2023-03-06T23:47:17.324Z,8.77
2023-03-06T23:52:20.085Z,8.83
2023-03-06T23:57:22.935Z,11.70
